createdAt,value
2023-02-23T00:00:27.782Z,23.87
2023-02-23T00:03:00.386Z,31.70
2023-02-23T00:05:29.272Z,26.07
2023-02-23T00:07:55.647Z,24.47
2023-02-23T00:10:29.525Z,23.57
2023-02-23T00:12:59.583Z,25.73
2023-02-23T00:15:26.845Z,20.30
2023-02-23T00:17:54.992Z,20.63
2023-02-23T00:20:25.579Z,22.63
2023-02-23T00:22:55.761Z,21.40
2023-02-23T00:25:22.795Z,20.33
2023-02-23T00:27:49.503Z,26.20
2023-02-23T00:30:19.659Z,27.30
2023-02-23T00:32:46.071Z,23.83
2023-02-23T00:35:16.872Z,24.57
2023-02-23T00:37:47.314Z,23.40
2023-02-23T00:40:15.939Z,22.20
2023-02-23T00:42:45.401Z,23.23
2023-02-23T00:45:12.898Z,25.57
2023-02-23T00:47:43.223Z,20.13
2023-02-23T00:50:14.526Z,24.50
2023-02-23T00:52:41.527Z,22.13
2023-02-23T00:55:09.080Z,26.50
2023-02-23T00:57:35.406Z,26.03
2023-02-23T01:00:12.499Z,19.47
2023-02-23T01:02:38.801Z,24.00
2023-02-23T01:05:05.458Z,26.23
2023-02-23T01:07:31.538Z,23.97
2023-02-23T01:09:57.604Z,25.67
2023-02-23T01:12:23.837Z,24.30
2023-02-23T01:14:50.044Z,25.27
2023-02-23T01:17:17.230Z,24.30
2023-02-23T01:19:43.286Z,25.50
2023-02-23T01:22:09.370Z,22.70
2023-02-23T01:24:35.512Z,24.03
2023-02-23T01:27:01.696Z,24.93
2023-02-23T01:29:27.850Z,27.40
2023-02-23T01:31:54.073Z,22.30
2023-02-23T01:34:23.339Z,25.33
2023-02-23T01:36:49.398Z,26.20
2023-02-23T01:39:18.177Z,24.70
2023-02-23T01:41:44.657Z,25.13
2023-02-23T01:44:13.736Z,22.80
2023-02-23T01:46:44.774Z,24.50
2023-02-23T01:49:19.730Z,23.60
2023-02-23T01:51:50.162Z,23.23
2023-02-23T01:54:19.489Z,24.33
2023-02-23T01:56:48.757Z,25.97
2023-02-23T01:59:15.972Z,24.27
2023-02-23T02:01:42.542Z,24.23
2023-02-23T02:04:15.693Z,22.40
2023-02-23T02:06:42.945Z,26.37
2023-02-23T02:09:15.975Z,25.93
2023-02-23T02:11:44.072Z,29.70
2023-02-23T02:14:36.398Z,24.80
2023-02-23T02:17:29.315Z,27.03
2023-02-23T02:20:14.178Z,26.07
2023-02-23T02:23:11.168Z,27.57
2023-02-23T02:25:39.702Z,27.63
2023-02-23T02:28:29.639Z,26.70
2023-02-23T02:31:22.033Z,31.57
2023-02-23T02:34:11.119Z,25.57
2023-02-23T02:36:55.495Z,28.40
2023-02-23T02:39:36.003Z,24.27
2023-02-23T02:42:24.119Z,24.03
2023-02-23T02:44:58.427Z,27.03
2023-02-23T02:47:34.569Z,29.40
2023-02-23T02:50:11.749Z,31.20
2023-02-23T02:52:49.200Z,27.07
2023-02-23T02:55:22.948Z,26.37
2023-02-23T02:57:49.871Z,29.77
2023-02-23T03:00:46.370Z,25.67
2023-02-23T03:03:51.031Z,27.97
2023-02-23T03:06:37.893Z,30.37
2023-02-23T03:09:50.632Z,29.37
2023-02-23T03:12:45.187Z,29.03
2023-02-23T03:16:10.411Z,29.73
2023-02-23T03:19:13.534Z,22.47
2023-02-23T03:22:24.260Z,28.17
2023-02-23T03:25:19.930Z,26.80
2023-02-23T03:28:12.272Z,26.97
2023-02-23T03:31:15.628Z,27.30
2023-02-23T03:34:08.631Z,24.73
2023-02-23T03:36:55.360Z,28.43
2023-02-23T03:39:55.639Z,28.67
2023-02-23T03:42:42.662Z,25.47
2023-02-23T03:45:31.531Z,34.23
2023-02-23T03:48:17.643Z,25.07
2023-02-23T03:51:06.880Z,27.73
2023-02-23T03:53:57.442Z,26.57
2023-02-23T03:56:44.931Z,21.50
2023-02-23T03:59:30.594Z,25.53
2023-02-23T04:02:15.754Z,27.97
2023-02-23T04:05:00.914Z,29.73
2023-02-23T04:07:45.723Z,26.50
2023-02-23T04:10:30.399Z,24.50
2023-02-23T04:13:16.379Z,35.20
2023-02-23T04:16:11.839Z,28.30
2023-02-23T04:18:39.038Z,27.73
2023-02-23T04:21:05.749Z,20.73
2023-02-23T04:23:32.376Z,28.40
2023-02-23T04:25:58.621Z,25.87
2023-02-23T04:28:26.830Z,25.00
2023-02-23T04:30:53.247Z,24.83
2023-02-23T04:33:21.366Z,27.83
2023-02-23T04:35:47.922Z,23.83
2023-02-23T04:38:13.976Z,24.70
2023-02-23T04:40:40.120Z,24.37
2023-02-23T04:43:06.209Z,25.07
2023-02-23T04:45:32.803Z,29.10
2023-02-23T04:47:58.864Z,26.43
2023-02-23T04:50:24.993Z,26.63
2023-02-23T04:52:52.390Z,24.40
2023-02-23T04:55:20.828Z,31.20
2023-02-23T04:57:47.418Z,28.47
2023-02-23T05:00:14.333Z,28.57
2023-02-23T05:02:40.473Z,28.83
2023-02-23T05:05:08.479Z,35.50
2023-02-23T05:07:35.750Z,37.43
2023-02-23T05:10:02.215Z,32.70
2023-02-23T05:12:28.278Z,31.47
2023-02-23T05:14:54.326Z,30.67
2023-02-23T05:17:20.428Z,31.57
2023-02-23T05:19:46.557Z,31.80
2023-02-23T05:22:12.778Z,28.90
2023-02-23T05:24:39.679Z,33.73
2023-02-23T05:27:07.034Z,26.60
2023-02-23T05:29:33.169Z,30.07
2023-02-23T05:31:59.494Z,36.03
2023-02-23T05:34:26.490Z,30.90
2023-02-23T05:36:53.576Z,31.27
2023-02-23T05:39:20.424Z,30.43
2023-02-23T05:41:46.553Z,36.57
2023-02-23T05:44:12.815Z,37.20
2023-02-23T05:46:39.297Z,32.70
2023-02-23T05:49:12.813Z,33.90
2023-02-23T05:51:38.978Z,36.17
2023-02-23T05:54:05.388Z,32.17
2023-02-23T05:56:31.876Z,33.53
2023-02-23T05:58:58.674Z,39.80
2023-02-23T06:01:26.088Z,39.33
2023-02-23T06:03:52.408Z,34.07
2023-02-23T06:06:19.548Z,37.57
2023-02-23T06:08:46.372Z,41.23
2023-02-23T06:11:12.690Z,38.10
2023-02-23T06:13:39.637Z,36.73
2023-02-23T06:16:07.705Z,39.10
2023-02-23T06:18:33.979Z,39.73
2023-02-23T06:21:01.488Z,36.70
2023-02-23T06:23:28.859Z,38.70
2023-02-23T06:25:55.026Z,41.20
2023-02-23T06:28:21.268Z,47.23
2023-02-23T06:30:48.041Z,49.73
2023-02-23T06:33:14.115Z,49.00
2023-02-23T06:35:40.193Z,46.90
2023-02-23T06:38:06.298Z,40.80
2023-02-23T06:40:32.805Z,42.60
2023-02-23T06:42:59.808Z,44.20
2023-02-23T06:45:26.042Z,46.53
2023-02-23T06:47:53.044Z,46.47
2023-02-23T06:50:19.487Z,52.83
2023-02-23T06:52:45.556Z,41.20
2023-02-23T06:55:12.639Z,49.53
2023-02-23T06:57:38.792Z,51.27
2023-02-23T07:00:05.563Z,45.33
2023-02-23T07:02:31.712Z,47.07
2023-02-23T07:04:58.212Z,43.43
2023-02-23T07:07:24.332Z,46.37
2023-02-23T07:09:50.412Z,49.70
2023-02-23T07:12:16.488Z,45.47
2023-02-23T07:14:42.631Z,44.37
2023-02-23T07:17:09.732Z,42.00
2023-02-23T07:19:37.260Z,44.90
2023-02-23T07:22:04.311Z,41.80
2023-02-23T07:24:30.421Z,44.17
2023-02-23T07:26:56.763Z,45.37
2023-02-23T07:29:27.483Z,47.30
2023-02-23T07:31:54.281Z,48.63
2023-02-23T07:34:20.595Z,43.57
2023-02-23T07:36:46.771Z,43.13
2023-02-23T07:39:12.958Z,42.03
2023-02-23T07:41:39.160Z,43.37
2023-02-23T07:44:05.343Z,44.70
2023-02-23T07:46:31.481Z,42.07
2023-02-23T07:48:57.574Z,46.67
2023-02-23T07:51:23.958Z,47.13
2023-02-23T07:53:50.083Z,50.23
2023-02-23T07:56:16.156Z,43.50
2023-02-23T07:58:43.574Z,45.80
2023-02-23T08:01:10.947Z,41.70
2023-02-23T08:03:38.101Z,49.33
2023-02-23T08:06:04.874Z,49.47
2023-02-23T08:08:31.272Z,53.03
2023-02-23T08:11:04.092Z,44.53
2023-02-23T08:13:31.177Z,44.50
2023-02-23T08:15:57.941Z,46.87
2023-02-23T08:18:24.779Z,52.73
2023-02-23T08:20:57.281Z,47.70
2023-02-23T08:23:23.410Z,48.50
2023-02-23T08:25:49.615Z,45.43
2023-02-23T08:28:15.686Z,42.50
2023-02-23T08:30:41.881Z,39.07
2023-02-23T08:33:08.118Z,43.27
2023-02-23T08:35:34.235Z,41.70
2023-02-23T08:38:00.285Z,54.17
2023-02-23T08:40:26.368Z,39.40
2023-02-23T08:42:52.469Z,41.70
2023-02-23T08:45:19.405Z,42.50
2023-02-23T08:47:45.584Z,50.30
2023-02-23T08:50:12.934Z,42.37
2023-02-23T08:52:39.716Z,40.50
2023-02-23T08:55:06.724Z,43.17
2023-02-23T08:57:34.032Z,49.80
2023-02-23T09:00:00.208Z,44.13
2023-02-23T09:02:26.856Z,39.00
2023-02-23T09:04:53.420Z,42.33
2023-02-23T09:07:22.420Z,43.73
2023-02-23T09:09:58.197Z,38.77
2023-02-23T09:12:24.542Z,40.10
2023-02-23T09:14:52.968Z,47.53
2023-02-23T09:17:22.197Z,42.77
2023-02-23T09:19:49.561Z,42.03
2023-02-23T09:22:17.626Z,37.00
2023-02-23T09:24:44.071Z,42.40
2023-02-23T09:27:12.148Z,48.90
2023-02-23T09:29:41.515Z,42.83
2023-02-23T09:32:08.119Z,40.40
2023-02-23T09:34:36.360Z,43.27
2023-02-23T09:37:04.464Z,50.03
2023-02-23T09:39:38.096Z,46.63
2023-02-23T09:42:43.437Z,45.27
2023-02-23T09:45:25.719Z,44.63
2023-02-23T09:48:00.743Z,48.40
2023-02-23T09:50:28.583Z,45.00
2023-02-23T09:53:03.799Z,43.73
2023-02-23T09:55:31.215Z,46.43
2023-02-23T09:58:05.374Z,46.90
2023-02-23T10:00:37.277Z,45.27
2023-02-23T10:03:30.277Z,39.87
2023-02-23T10:06:06.136Z,42.93
2023-02-23T10:09:09.748Z,44.07
2023-02-23T10:11:41.465Z,40.57
2023-02-23T10:14:28.186Z,43.70
2023-02-23T10:17:09.206Z,47.23
2023-02-23T10:19:52.141Z,42.77
2023-02-23T10:22:19.524Z,43.47
2023-02-23T10:24:52.296Z,45.10
2023-02-23T10:27:20.736Z,45.47
2023-02-23T10:29:54.087Z,45.93
2023-02-23T10:32:32.379Z,53.53
2023-02-23T10:34:59.108Z,49.03
2023-02-23T10:37:25.807Z,41.87
2023-02-23T10:39:52.338Z,45.20
2023-02-23T10:42:27.825Z,48.83
2023-02-23T10:44:53.998Z,44.43
2023-02-23T10:47:22.630Z,52.13
2023-02-23T10:49:51.021Z,44.00
2023-02-23T10:52:42.260Z,47.80
2023-02-23T10:55:27.569Z,51.40
2023-02-23T10:58:19.043Z,51.53
2023-02-23T11:00:51.188Z,48.77
2023-02-23T11:03:29.772Z,53.83
2023-02-23T11:05:55.924Z,50.67
2023-02-23T11:08:34.429Z,50.33
2023-02-23T11:11:04.151Z,50.57
2023-02-23T11:13:40.917Z,50.20
2023-02-23T11:16:14.384Z,52.23
2023-02-23T11:18:43.326Z,47.80
2023-02-23T11:21:22.365Z,48.00
2023-02-23T11:23:51.491Z,47.20
2023-02-23T11:26:30.307Z,54.77
2023-02-23T11:29:00.224Z,49.27
2023-02-23T11:31:31.938Z,52.20
2023-02-23T11:33:58.716Z,45.90
2023-02-23T11:36:30.730Z,50.47
2023-02-23T11:39:17.191Z,47.83
2023-02-23T11:41:43.438Z,49.83
2023-02-23T11:44:22.900Z,49.10
2023-02-23T11:46:50.018Z,53.00
2023-02-23T11:49:22.187Z,48.67
2023-02-23T11:51:49.765Z,44.60
2023-02-23T11:54:23.044Z,45.03
2023-02-23T11:56:51.547Z,47.73
2023-02-23T11:59:19.811Z,49.30
2023-02-23T12:01:49.458Z,52.80
2023-02-23T12:04:25.636Z,51.70
2023-02-23T12:06:52.440Z,49.63
2023-02-23T12:09:27.921Z,55.20
2023-02-23T12:12:06.461Z,46.37
2023-02-23T12:15:06.812Z,47.97
2023-02-23T12:17:39.452Z,52.73
2023-02-23T12:20:20.910Z,44.33
2023-02-23T12:22:54.312Z,43.40
2023-02-23T12:25:38.739Z,42.70
2023-02-23T12:28:34.666Z,45.00
2023-02-23T12:31:06.525Z,38.90
2023-02-23T12:33:35.583Z,35.70
2023-02-23T12:36:01.638Z,48.10
2023-02-23T12:38:36.495Z,41.97
2023-02-23T12:41:11.733Z,45.77
2023-02-23T12:43:48.540Z,44.17
2023-02-23T12:46:21.291Z,42.73
2023-02-23T12:48:56.714Z,40.43
2023-02-23T12:51:57.602Z,39.80
2023-02-23T12:54:23.945Z,39.80
2023-02-23T12:56:54.592Z,39.53
2023-02-23T12:59:51.717Z,41.90
2023-02-23T13:02:35.468Z,40.97
2023-02-23T13:05:16.395Z,45.73
2023-02-23T13:08:13.273Z,40.63
2023-02-23T13:11:13.920Z,27.93
2023-02-23T13:13:51.681Z,28.87
2023-02-23T13:16:25.464Z,19.60
2023-02-23T13:19:23.185Z,16.90
2023-02-23T13:21:58.439Z,14.50
2023-02-23T13:24:37.913Z,14.37
2023-02-23T13:27:17.907Z,14.30
2023-02-23T13:29:48.806Z,13.73
2023-02-23T13:32:21.302Z,13.40
2023-02-23T13:34:51.779Z,12.87
2023-02-23T13:37:21.168Z,11.80
2023-02-23T13:40:15.867Z,12.13
2023-02-23T13:43:13.048Z,12.83
2023-02-23T13:46:18.700Z,13.90
2023-02-23T13:49:02.107Z,14.20
2023-02-23T13:51:42.961Z,13.90
2023-02-23T13:54:12.102Z,13.13
2023-02-23T13:56:59.220Z,14.57
2023-02-23T13:59:35.923Z,11.33
2023-02-23T14:02:20.804Z,13.20
2023-02-23T14:04:47.109Z,12.03
2023-02-23T14:07:21.497Z,12.50
2023-02-23T14:09:56.531Z,12.70
2023-02-23T14:12:36.785Z,13.20
2023-02-23T14:15:42.200Z,12.27
2023-02-23T14:18:20.592Z,13.07
2023-02-23T14:21:12.269Z,12.80
2023-02-23T14:23:41.385Z,13.80
2023-02-23T14:26:15.411Z,12.67
2023-02-23T14:28:48.436Z,13.13
2023-02-23T14:31:15.282Z,13.07
2023-02-23T14:33:41.426Z,13.33
2023-02-23T14:36:28.414Z,16.03
2023-02-23T14:39:00.243Z,15.97
2023-02-23T14:41:33.949Z,14.67
2023-02-23T14:44:27.186Z,16.60
2023-02-23T14:47:10.892Z,15.60
2023-02-23T14:49:42.183Z,15.87
2023-02-23T14:52:48.323Z,15.83
2023-02-23T14:55:22.226Z,14.80
2023-02-23T14:57:49.258Z,16.40
2023-02-23T15:00:23.152Z,15.30
2023-02-23T15:03:02.986Z,17.20
2023-02-23T15:05:34.146Z,17.90
2023-02-23T15:08:03.798Z,17.67
2023-02-23T15:10:37.110Z,18.70
2023-02-23T15:13:11.745Z,18.00
2023-02-23T15:15:44.581Z,25.20
2023-02-23T15:18:29.387Z,19.57
2023-02-23T15:20:55.504Z,20.87
2023-02-23T15:23:21.844Z,20.87
2023-02-23T15:25:50.360Z,21.73
2023-02-23T15:28:25.242Z,21.57
2023-02-23T15:30:54.350Z,19.63
2023-02-23T15:33:27.794Z,22.43
2023-02-23T15:36:14.517Z,22.67
2023-02-23T15:38:44.629Z,25.60
2023-02-23T15:41:31.727Z,26.17
2023-02-23T15:44:21.753Z,23.00
2023-02-23T15:46:57.970Z,35.23
2023-02-23T15:49:30.685Z,32.70
2023-02-23T15:51:59.971Z,27.20
2023-02-23T15:54:29.067Z,25.30
2023-02-23T15:56:57.104Z,28.20
2023-02-23T15:59:30.103Z,25.37
2023-02-23T16:01:59.054Z,29.47
2023-02-23T16:04:31.640Z,27.20
2023-02-23T16:07:13.182Z,27.80
2023-02-23T16:09:55.812Z,30.17
2023-02-23T16:12:25.071Z,27.50
2023-02-23T16:14:56.531Z,29.63
2023-02-23T16:17:27.732Z,30.33
2023-02-23T16:20:10.552Z,30.73
2023-02-23T16:22:39.091Z,35.87
2023-02-23T16:25:10.293Z,24.83
2023-02-23T16:27:37.244Z,28.07
2023-02-23T16:30:33.692Z,26.87
2023-02-23T16:33:04.763Z,24.63
2023-02-23T16:35:44.744Z,26.77
2023-02-23T16:38:23.065Z,26.57
2023-02-23T16:40:49.161Z,22.90
2023-02-23T16:43:15.595Z,25.47
2023-02-23T16:45:42.571Z,25.33
2023-02-23T16:48:13.502Z,24.60
2023-02-23T16:50:42.537Z,21.77
2023-02-23T16:53:10.022Z,22.13
2023-02-23T16:55:39.657Z,23.90
2023-02-23T16:58:12.941Z,20.03
2023-02-23T17:00:39.056Z,21.07
2023-02-23T17:03:06.037Z,17.97
2023-02-23T17:05:32.421Z,22.13
2023-02-23T17:07:58.609Z,17.80
2023-02-23T17:10:28.402Z,15.97
2023-02-23T17:12:56.960Z,11.33
2023-02-23T17:15:25.572Z,10.73
2023-02-23T17:17:52.708Z,10.37
2023-02-23T17:20:20.740Z,13.83
2023-02-23T17:22:49.564Z,7.83
2023-02-23T17:25:16.546Z,7.90
2023-02-23T17:27:42.920Z,8.10
2023-02-23T17:30:11.783Z,6.87
2023-02-23T17:32:38.040Z,6.20
2023-02-23T17:35:04.630Z,5.97
2023-02-23T17:37:30.913Z,6.60
2023-02-23T17:39:56.974Z,5.33
2023-02-23T17:42:34.191Z,5.00
2023-02-23T17:45:01.918Z,4.50
2023-02-23T17:47:30.409Z,6.60
2023-02-23T17:50:00.914Z,5.90
2023-02-23T17:52:27.741Z,5.67
2023-02-23T17:54:54.694Z,5.40
2023-02-23T17:57:21.841Z,4.00
2023-02-23T17:59:47.996Z,4.40
2023-02-23T18:02:17.379Z,4.70
2023-02-23T18:04:43.652Z,5.90
2023-02-23T18:07:10.120Z,4.23
2023-02-23T18:09:36.899Z,4.10
2023-02-23T18:12:03.177Z,3.63
2023-02-23T18:14:29.265Z,4.30
2023-02-23T18:16:56.775Z,4.27
2023-02-23T18:19:23.925Z,3.73
2023-02-23T18:21:50.219Z,4.83
2023-02-23T18:24:16.319Z,5.07
2023-02-23T18:26:42.394Z,5.00
2023-02-23T18:29:08.432Z,6.80
2023-02-23T18:31:34.660Z,5.10
2023-02-23T18:34:01.332Z,4.60
2023-02-23T18:36:34.653Z,5.00
2023-02-23T18:39:01.595Z,5.27
2023-02-23T18:41:30.070Z,5.37
2023-02-23T18:44:00.559Z,4.77
2023-02-23T18:46:27.278Z,4.83
2023-02-23T18:48:54.524Z,4.40
2023-02-23T18:51:21.911Z,4.37
2023-02-23T18:53:52.158Z,4.83
2023-02-23T18:56:24.402Z,4.63
2023-02-23T18:58:51.843Z,5.57
2023-02-23T19:01:21.602Z,4.63
2023-02-23T19:03:48.932Z,5.37
2023-02-23T19:06:16.122Z,5.87
2023-02-23T19:08:43.373Z,5.80
2023-02-23T19:11:10.381Z,5.00
2023-02-23T19:13:39.376Z,6.17
2023-02-23T19:16:07.273Z,5.50
2023-02-23T19:18:34.924Z,4.70
2023-02-23T19:21:02.493Z,5.20
2023-02-23T19:23:28.658Z,5.50
2023-02-23T19:25:55.025Z,5.30
2023-02-23T19:28:21.584Z,4.97
2023-02-23T19:30:48.685Z,6.13
2023-02-23T19:33:15.904Z,5.67
2023-02-23T19:35:42.521Z,5.10
2023-02-23T19:38:10.279Z,4.67
2023-02-23T19:40:41.920Z,4.87
2023-02-23T19:43:11.948Z,4.67
2023-02-23T19:45:40.307Z,4.80
2023-02-23T19:48:07.386Z,4.53
2023-02-23T19:50:35.168Z,5.00
2023-02-23T19:53:01.521Z,4.60
2023-02-23T19:55:27.714Z,4.90
2023-02-23T19:57:53.813Z,4.60
2023-02-23T20:00:20.706Z,4.50
2023-02-23T20:02:53.945Z,4.50
2023-02-23T20:05:21.884Z,4.83
2023-02-23T20:07:48.746Z,5.50
2023-02-23T20:10:15.488Z,4.77
2023-02-23T20:12:42.294Z,4.60
2023-02-23T20:15:09.341Z,4.80
2023-02-23T20:17:36.040Z,7.00
2023-02-23T20:20:05.348Z,5.90
2023-02-23T20:22:32.780Z,6.30
2023-02-23T20:24:59.692Z,6.60
2023-02-23T20:27:29.175Z,6.37
2023-02-23T20:29:57.659Z,9.73
2023-02-23T20:32:23.969Z,10.13
2023-02-23T20:34:51.008Z,9.53
2023-02-23T20:37:17.151Z,7.03
2023-02-23T20:39:43.279Z,6.40
2023-02-23T20:42:09.347Z,7.00
2023-02-23T20:44:35.736Z,6.47
2023-02-23T20:47:01.894Z,7.40
2023-02-23T20:49:28.987Z,14.33
2023-02-23T20:51:55.235Z,10.00
2023-02-23T20:54:21.306Z,9.47
2023-02-23T20:56:58.039Z,8.70
2023-02-23T20:59:28.643Z,13.70
2023-02-23T21:01:54.963Z,10.23
2023-02-23T21:04:21.248Z,7.80
2023-02-23T21:06:47.381Z,8.03
2023-02-23T21:09:16.468Z,7.30
2023-02-23T21:11:47.136Z,6.30
2023-02-23T21:14:13.820Z,7.57
2023-02-23T21:16:45.646Z,7.33
2023-02-23T21:19:19.319Z,6.63
2023-02-23T21:21:47.969Z,9.67
2023-02-23T21:24:15.004Z,6.40
2023-02-23T21:26:41.861Z,6.23
2023-02-23T21:29:10.916Z,7.63
2023-02-23T21:31:38.489Z,6.87
2023-02-23T21:34:05.675Z,7.60
2023-02-23T21:36:32.628Z,8.60
2023-02-23T21:38:59.371Z,6.47
2023-02-23T21:41:26.794Z,7.37
2023-02-23T21:43:53.320Z,7.83
2023-02-23T21:46:21.112Z,7.90
2023-02-23T21:48:47.781Z,8.10
2023-02-23T21:51:15.343Z,8.23
2023-02-23T21:53:42.948Z,6.43
2023-02-23T21:56:20.487Z,8.80
2023-02-23T21:58:51.741Z,10.60
2023-02-23T22:01:21.036Z,9.50
2023-02-23T22:03:47.553Z,12.90
2023-02-23T22:06:19.872Z,12.73
2023-02-23T22:08:49.214Z,15.10
2023-02-23T22:11:19.462Z,21.63
2023-02-23T22:13:47.436Z,17.60
2023-02-23T22:16:15.545Z,19.10
2023-02-23T22:18:41.966Z,19.07
2023-02-23T22:21:10.902Z,18.50
2023-02-23T22:23:43.091Z,18.20
2023-02-23T22:26:09.737Z,16.53
2023-02-23T22:28:36.177Z,27.27
2023-02-23T22:31:03.969Z,19.00
2023-02-23T22:33:30.077Z,21.50
2023-02-23T22:35:57.793Z,19.07
2023-02-23T22:38:23.975Z,22.57
2023-02-23T22:40:50.059Z,27.10
2023-02-23T22:43:16.152Z,24.50
2023-02-23T22:45:43.263Z,25.67
2023-02-23T22:48:09.641Z,29.00
2023-02-23T22:50:36.285Z,29.93
2023-02-23T22:53:03.491Z,30.27
2023-02-23T22:55:29.948Z,26.70
2023-02-23T22:57:56.808Z,35.60
2023-02-23T23:00:23.019Z,32.70
2023-02-23T23:02:49.296Z,30.87
2023-02-23T23:05:15.624Z,25.60
2023-02-23T23:07:41.861Z,26.10
2023-02-23T23:10:09.389Z,30.70
2023-02-23T23:12:37.315Z,29.80
2023-02-23T23:15:03.695Z,28.77
2023-02-23T23:17:30.562Z,30.57
2023-02-23T23:19:59.378Z,28.17
2023-02-23T23:22:26.082Z,33.80
2023-02-23T23:24:52.476Z,30.83
2023-02-23T23:27:19.623Z,26.83
2023-02-23T23:29:47.423Z,24.30
2023-02-23T23:32:18.061Z,30.50
2023-02-23T23:34:48.242Z,22.60
2023-02-23T23:37:16.209Z,22.57
2023-02-23T23:39:42.797Z,20.73
2023-02-23T23:42:09.788Z,23.13
2023-02-23T23:44:36.256Z,23.93
2023-02-23T23:47:05.657Z,23.10
2023-02-23T23:49:39.320Z,20.67
2023-02-23T23:52:05.853Z,23.00
2023-02-23T23:54:37.935Z,20.80
2023-02-23T23:57:05.116Z,21.40
2023-02-23T23:59:32.923Z,20.70
